METAR Data
IDs: Format: Raw Decoded Include TAF

Data at: 2249 UTC 25 Oct 2021

KRPH 252235Z AUTO 11007KT 10SM CLR 29/17 A2988 RMK AO2 SLP716 T02920174
KRPH 252215Z AUTO 12007KT 080V140 10SM CLR 30/17 A2988 RMK AO2 SLP717 T02950171
KRPH 252155Z AUTO VRB06KT 10SM CLR 30/17 A2989 RMK AO2 SLP718 T02980170
KRPH 252135Z AUTO 13005KT 10SM CLR 30/17 A2989 RMK AO2 SLP719 T02970169
KRPH 252115Z AUTO VRB06KT 10SM CLR 30/17 A2989 RMK AO2 SLP719 T02950167
KRPH 252055Z AUTO 12007KT 10SM CLR 29/16 A2989 RMK AO2 SLP720 T02940161
KRPH 252035Z AUTO 14008KT 100V200 10SM CLR 29/16 A2990 RMK AO2 SLP722 T02940161
KRPH 252015Z AUTO VRB05KT 10SM CLR 29/16 A2990 RMK AO2 SLP722 T02910160
KRPH 251955Z AUTO 15007KT 10SM CLR 29/15 A2991 RMK AO2 SLP725 T02890154
KRPH 251935Z AUTO VRB06KT 10SM CLR 29/15 A2991 RMK AO2 SLP727 T02850154
KRPH 251915Z AUTO 12008KT 10SM CLR 28/15 A2992 RMK AO2 SLP729 T02820153
KRPH 251855Z AUTO VRB05KT 10SM CLR 28/15 A2993 RMK AO2 SLP732 T02770150
KRPH 251835Z AUTO 13006KT 10SM CLR 28/15 A2994 RMK AO2 SLP736 T02770149
KRPH 251815Z AUTO 11009KT 080V170 10SM CLR 27/14 A2995 RMK AO2 SLP739 T02680142
KRPH 251755Z AUTO 09008KT 10SM CLR 27/13 A2996 RMK AO2 SLP741 T02690135
KRPH 251735Z AUTO 13008KT 10SM CLR 26/12 A2997 RMK AO2 SLP744 T02610124
KRPH 251715Z AUTO 12010KT 10SM CLR 26/12 A2998 RMK AO2 SLP748 T02570120
KRPH 251655Z AUTO 10009KT 10SM CLR 25/11 A2998 RMK AO2 SLP749 T02500115
KRPH 251635Z AUTO 13008KT 10SM CLR 25/11 A2999 RMK AO2 SLP750 T02460108
KRPH 251615Z AUTO 10010G17KT 10SM CLR 24/10 A2999 RMK AO2 SLP751 T02410101
KRPH 251555Z AUTO 13009KT 090V160 10SM CLR 24/10 A2999 RMK AO2 SLP753 T02370100
KRPH 251535Z AUTO VRB06KT 10SM CLR 23/10 A3000 RMK AO2 SLP754 T02340095
KRPH 251515Z AUTO 09008KT 070V140 10SM CLR 22/10 A3000 RMK AO2 SLP756 T02240101
KRPH 251455Z AUTO 00000KT 10SM CLR 21/12 A3000 RMK AO2 SLP755 T02070122
KRPH 251435Z AUTO 00000KT 10SM CLR 18/12 A3000 RMK AO2 SLP754 T01850124
KRPH 251415Z AUTO 00000KT 10SM CLR 17/12 A3000 RMK AO2 SLP755 T01660121
KRPH 251355Z AUTO 00000KT 10SM CLR 14/11 A3000 RMK AO2 SLP754 T01440113
KRPH 251335Z AUTO 00000KT 10SM CLR 12/10 A2999 RMK AO2 SLP753 T01230104
KRPH 251315Z AUTO 00000KT 10SM CLR 11/10 A2998 RMK AO2 SLP749 T01090095
KRPH 251255Z AUTO 00000KT 9SM CLR 10/09 A2998 RMK AO2 SLP747 T01010092
KRPH 251235Z AUTO 01003KT 9SM CLR 11/09 A2997 RMK AO2 SLP745 T01060095
KRPH 251215Z AUTO 00000KT 10SM CLR 10/09 A2996 RMK AO2 SLP743 T01050093
KRPH 251055Z AUTO 01003KT 10SM CLR 11/09 A2994 RMK AO2 SLP734 T01070094
KRPH 251035Z AUTO 01003KT 10SM CLR 11/10 A2994 RMK AO2 SLP734 T01060097
KRPH 251015Z AUTO 00000KT 10SM CLR 11/10 A2993 RMK AO2 SLP732 T01120099
KRPH 250955Z AUTO 00000KT 10SM CLR 12/10 A2993 RMK AO2 SLP732 T01180100
KRPH 250935Z AUTO 00000KT 10SM CLR 11/10 A2993 RMK AO2 SLP732 T01100099
KRPH 250915Z AUTO 00000KT 10SM CLR 11/10 A2993 RMK AO2 SLP732 T01150100
KRPH 250855Z AUTO 16003KT 10SM CLR 14/10 A2993 RMK AO2 SLP731 T01360103
KRPH 250835Z AUTO 19004KT 10SM CLR 13/10 A2993 RMK AO2 SLP731 T01330101
KRPH 250815Z AUTO 16005KT 10SM CLR 12/10 A2992 RMK AO2 SLP730 T01190097
KRPH 250755Z AUTO 35004KT 10SM CLR 12/10 A2992 RMK AO2 SLP728 T01190098
KRPH 250735Z AUTO 36004KT 10SM CLR 12/10 A2992 RMK AO2 SLP729 T01190096
KRPH 250715Z AUTO 00000KT 10SM CLR 13/10 A2992 RMK AO2 SLP729 T01260096
KRPH 250515Z AUTO 00000KT 10SM CLR 16/09 A2992 RMK AO2 SLP729 T01610091
KRPH 250455Z AUTO 00000KT 10SM CLR 16/09 A2992 RMK AO2 SLP728 T01600090
KRPH 250435Z AUTO 00000KT 10SM CLR 16/09 A2991 RMK AO2 SLP727 T01630087
KRPH 250355Z AUTO 13004KT 10SM CLR 17/09 A2990 RMK AO2 SLP724 T01680085
KRPH 250335Z AUTO 06003KT 10SM CLR 19/08 A2989 RMK AO2 SLP718 T01900083
KRPH 250315Z AUTO 06004KT 10SM CLR 20/08 A2987 RMK AO2 SLP714 T01990083
KRPH 250255Z AUTO 07003KT 10SM CLR 21/08 A2986 RMK AO2 SLP710 T02090085
KRPH 250235Z AUTO 04004KT 10SM CLR 21/08 A2985 RMK AO2 SLP707 T02140083
KRPH 250215Z AUTO 03004KT 10SM CLR 22/08 A2984 RMK AO2 SLP704 T02170077
KRPH 250155Z AUTO 05005KT 10SM CLR 22/07 A2984 RMK AO2 SLP702 T02220072
KRPH 250135Z AUTO 03003KT 10SM CLR 23/06 A2983 RMK AO2 SLP699 T02270064
KRPH 250115Z AUTO 02003KT 10SM CLR 23/05 A2982 RMK AO2 SLP697 T02270052
KRPH 250055Z AUTO 04003KT 10SM CLR 23/06 A2981 RMK AO2 SLP694 T02280058
KRPH 250035Z AUTO 00000KT 10SM CLR 23/06 A2980 RMK AO2 SLP690 T02330059
KRPH 250015Z AUTO VRB03KT 10SM CLR 24/06 A2979 RMK AO2 SLP687 T02400063
KRPH 242355Z AUTO 01005KT 10SM CLR 26/06 A2979 RMK AO2 SLP685 T02570060
KRPH 242315Z AUTO 35010KT 8SM CLR 29/05 A2977 RMK AO2 SLP681 T02880049
KRPH 242255Z AUTO 35011KT 9SM CLR 30/04 A2976 RMK AO2 SLP678 T02990044
KRPH 242235Z AUTO 34009KT 360V350 10SM CLR 32/04 A2976 RMK AO2 SLP675 T03170040
KRPH 242215Z AUTO 32008KT 10SM CLR 33/03 A2975 RMK AO2 SLP674 T03250025
KRPH 242155Z AUTO 31007KT 10SM CLR 33/04 A2975 RMK AO2 SLP672 T03300037
KRPH 242135Z AUTO 31008KT 10SM CLR 33/04 A2974 RMK AO2 SLP670 T03320040
KRPH 242115Z AUTO 27009KT 10SM CLR 33/06 A2973 RMK AO2 SLP668 T03330057
KRPH 242055Z AUTO 28008KT 10SM CLR 33/06 A2972 RMK AO2 SLP665 T03320065
KRPH 242035Z AUTO 26010KT 10SM CLR 33/07 A2972 RMK AO2 SLP665 T03350070
KRPH 242015Z AUTO 28010G16KT 10SM CLR 33/07 A2972 RMK AO2 SLP665 T03340068
KRPH 241955Z AUTO 25010G17KT 220V280 10SM CLR 34/07 A2972 RMK AO2 SLP665 T03370069
KRPH 241935Z AUTO 24012G17KT 10SM CLR 33/06 A2972 RMK AO2 SLP665 T03340057
KRPH 241915Z AUTO 24008G16KT 220V280 8SM CLR 33/09 A2973 RMK AO2 SLP667 T03290087
KRPH 241855Z AUTO 23011G16KT 200V280 10SM CLR 33/12 A2974 RMK AO2 SLP669 T03260121
KRPH 241835Z AUTO 24009KT 10SM CLR 32/13 A2975 RMK AO2 SLP672 T03210130
KRPH 241815Z AUTO 22007KT 10SM CLR 32/16 A2975 RMK AO2 SLP674 T03180158
KRPH 241755Z AUTO 23011KT 10SM CLR 31/16 A2976 RMK AO2 SLP677 T03110162
KRPH 241735Z AUTO 22008G18KT 160V250 10SM CLR 30/18 A2977 RMK AO2 SLP681 T02970183
KRPH 241715Z AUTO 23011G17KT 200V260 10SM FEW042 29/18 A2978 RMK AO2 SLP683 T02930182
KRPH 241655Z AUTO 22013KT 10SM CLR 29/18 A2978 RMK AO2 SLP684 T02900183
KRPH 241635Z AUTO 20010G18KT 170V230 10SM CLR 28/19 A2978 RMK AO2 SLP682 T02790189
KRPH 241615Z AUTO 21011KT 10SM CLR 27/19 A2978 RMK AO2 SLP684 T02730194
KRPH 241555Z AUTO 19012G16KT 10SM CLR 26/19 A2979 RMK AO2 SLP686 T02630193
KRPH 241535Z AUTO 19012G17KT 10SM CLR 26/19 A2979 RMK AO2 SLP685 T02580193
KRPH 241515Z AUTO 19010G17KT 10SM CLR 25/19 A2979 RMK AO2 SLP685 T02500192
KRPH 241455Z AUTO 19009G16KT 10SM CLR 24/19 A2979 RMK AO2 SLP685 T02380191
KRPH 241435Z AUTO 17009G15KT 10SM CLR 23/19 A2979 RMK AO2 SLP687 T02300190
KRPH 241415Z AUTO 17008G14KT 110V200 10SM CLR 22/19 A2979 RMK AO2 SLP686 T02220187
KRPH 241355Z AUTO 17008KT 10SM CLR 21/19 A2979 RMK AO2 SLP685 T02140185
KRPH 241335Z AUTO 16007KT 10SM FEW028 SCT130 21/18 A2978 RMK AO2 SLP683 T02080184
KRPH 241315Z AUTO VRB06KT 9SM FEW028 BKN120 21/18 A2979 RMK AO2 SLP686 T02060184
KRPH 241255Z AUTO 15007KT 10SM SCT120 BKN250 20/18 A2977 RMK AO2 SLP681 T02020183
KRPH 241235Z AUTO 15007KT 10SM SCT130 BKN250 20/18 A2977 RMK AO2 SLP680 T02020182
KRPH 241215Z AUTO VRB04KT 10SM SCT130 20/18 A2977 RMK AO2 SLP680 T02020181
KRPH 241135Z AUTO 16008KT 10SM CLR 20/18 A2976 RMK AO2 SLP678 T02040181
KRPH 241115Z AUTO 16007KT 130V190 10SM FEW100 21/18 A2976 RMK AO2 SLP676 T02050181
KRPH 241055Z AUTO 17007KT 120V210 10SM SCT100 BKN130 21/18 A2975 RMK AO2 SLP674 T02060181